EST,Max TemperatureF,Mean TemperatureF,Min TemperatureF,Max Dew PointF,MeanDew PointF,Min DewpointF,Max Humidity, Mean Humidity, Min Humidity, Max Sea Level PressureIn, Mean Sea Level PressureIn, Min Sea Level PressureIn, Max VisibilityMiles, Mean VisibilityMiles, Min VisibilityMiles, Max Wind SpeedMPH, Mean Wind SpeedMPH, Max Gust SpeedMPH,PrecipitationIn, CloudCover, Events, WindDirDegrees
2012-12-1,43,38,33,39,36,30,93,85,79,30.47,30.42,30.38,7,5,4,7,2,,0.00,8,,170
2012-12-2,48,44,39,45,41,39,100,92,76,30.40,30.26,30.10,4,3,1,9,4,,0.08,8,Rain,207
2012-12-3,62,50,37,52,45,37,100,90,70,30.25,30.19,30.13,10,3,0,6,1,,0.00,6,Fog-Rain,56
2012-12-4,66,56,45,54,50,45,100,88,60,30.21,30.14,29.94,10,4,0,9,1,,0.02,5,Fog-Rain,194
2012-12-5,57,45,30,52,33,19,89,64,44,30.34,30.15,29.97,10,10,5,15,10,24,0.05,4,Rain,304
2012-12-6,39,31,23,25,22,19,92,74,49,30.40,30.32,30.24,10,10,10,8,3,,0.00,0,,355
2012-12-7,37,32,26,38,34,24,100,95,70,30.22,30.10,30.01,10,4,1,6,1,,0.52,7,Rain,230
2012-12-8,46,42,37,45,41,37,100,98,89,30.06,29.95,29.88,7,3,0,7,1,,0.12,8,Fog-Rain,191
2012-12-9,43,41,39,43,38,33,100,93,77,30.26,30.13,29.98,10,4,0,9,2,,0.19,7,Fog-Rain,18
2012-12-10,50,46,41,49,44,39,100,95,83,29.95,29.70,29.56,10,5,1,13,3,18,0.25,8,Rain,234
2012-12-11,45,40,32,40,32,22,89,73,47,30.23,29.97,29.74,10,10,6,13,5,22,0.06,6,Rain,293
2012-12-12,42,34,26,29,27,24,92,80,49,30.48,30.38,30.23,10,9,6,7,1,,0.00,3,,214
2012-12-13,43,32,21,27,22,19,100,86,43,30.51,30.46,30.35,10,5,0,4,1,,0.00,2,Fog,335
2012-12-14,48,34,21,30,24,18,92,79,44,30.32,30.27,30.21,10,8,4,5,1,,0.01,0,,252
2012-12-15,45,35,25,33,29,23,96,81,63,30.34,30.24,30.14,10,7,4,5,0,,0.00,2,,111
2012-12-16,48,45,42,43,39,33,86,77,65,30.10,29.97,29.86,10,8,5,8,6,,0.00,8,,165
2012-12-17,48,45,42,45,43,42,100,92,83,29.86,29.76,29.57,10,6,2,7,3,,0.51,8,Rain,147
2012-12-18,48,44,39,46,40,28,100,90,62,29.79,29.57,29.51,10,6,2,14,2,26,0.03,8,Rain,252
2012-12-19,45,38,30,33,30,28,92,75,58,30.19,29.97,29.79,10,9,4,15,5,22,0.00,4,,315
2012-12-20,45,36,28,40,30,26,100,86,60,30.21,30.03,29.49,10,6,2,21,3,33,0.47,4,Rain,139
2012-12-21,50,42,35,46,34,25,100,79,60,29.42,29.32,29.27,10,8,2,21,11,41,0.76,8,Rain-Snow,268
2012-12-22,37,35,33,25,22,20,64,57,50,29.98,29.75,29.43,10,10,10,24,14,33,0.00,8,,287
2012-12-23,41,33,25,23,21,18,88,64,40,30.02,29.96,29.88,10,10,10,10,6,17,0.00,2,,233
2012-12-24,37,29,21,31,27,20,100,88,57,30.09,29.98,29.90,10,4,0,9,1,,0.01,5,Fog-Rain-Snow,137
2012-12-25,37,34,28,34,30,21,96,86,64,30.30,30.08,29.90,10,4,1,9,1,,0.16,8,Rain,26
2012-12-26,33,28,24,30,24,17,100,84,69,30.31,29.92,29.53,10,6,0,13,8,,0.00,8,Fog-Rain-Snow,23
2012-12-27,34,32,30,31,25,21,93,76,64,29.99,29.74,29.50,10,8,2,15,10,26,0.08,8,Rain-Snow,312
2012-12-28,35,27,19,24,22,18,92,73,60,30.14,30.09,30.00,10,10,7,9,5,,0.29,4,,315
2012-12-29,33,28,23,28,26,20,100,89,61,30.04,29.72,29.59,10,3,0,10,3,18,0.00,8,Fog-Snow,10
2012-12-30,34,31,28,21,18,15,75,58,48,30.27,30.10,29.80,10,10,10,17,11,30,0.24,6,,299
2012-12-31,39,29,19,29,20,15,81,66,52,30.27,30.12,29.94,10,10,6,7,3,,0.30,3,,214